createdAt,value
2018-12-07T00:00:09.967Z,1007.19
2018-12-07T00:01:19.428Z,1007.16
2018-12-07T00:02:29.386Z,1007.1
2018-12-07T00:03:38.841Z,1007.04
2018-12-07T00:04:48.284Z,1007.07
2018-12-07T00:05:57.989Z,1007.06
2018-12-07T00:07:07.696Z,1007.05
2018-12-07T00:08:17.656Z,1006.99
2018-12-07T00:09:27.097Z,1007.05
2018-12-07T00:10:36.813Z,1007.09
2018-12-07T00:11:46.756Z,1007
2018-12-07T00:12:56.255Z,1006.95
2018-12-07T00:14:06.226Z,1006.86
2018-12-07T00:15:16.217Z,1006.95
2018-12-07T00:16:25.917Z,1006.88
2018-12-07T00:17:35.619Z,1006.97
2018-12-07T00:18:45.580Z,1006.82
2018-12-07T00:19:55.271Z,1006.99
2018-12-07T00:21:04.986Z,1006.94
2018-12-07T00:22:14.692Z,1006.89
2018-12-07T00:23:24.394Z,1006.9
2018-12-07T00:24:34.348Z,1006.96
2018-12-07T00:25:44.291Z,1006.96
2018-12-07T00:26:53.995Z,1006.89
2018-12-07T00:28:03.698Z,1006.94
2018-12-07T00:29:12.898Z,1006.92
2018-12-07T00:30:22.589Z,1006.9
2018-12-07T00:31:32.042Z,1006.88
2018-12-07T00:32:41.995Z,1006.86
2018-12-07T00:33:51.446Z,1006.76
2018-12-07T00:35:01.397Z,1006.72
2018-12-07T00:36:10.866Z,1006.69
2018-12-07T00:37:20.890Z,1006.68
2018-12-07T00:38:30.841Z,1006.65
2018-12-07T00:39:40.537Z,1006.63
2018-12-07T00:40:50.479Z,1006.6
2018-12-07T00:42:00.437Z,1006.53
2018-12-07T00:43:10.380Z,1006.55
2018-12-07T00:44:19.828Z,1006.54
2018-12-07T00:45:29.770Z,1006.51
2018-12-07T00:46:39.475Z,1006.54
2018-12-07T00:47:49.169Z,1006.57
2018-12-07T00:48:58.867Z,1006.64
2018-12-07T00:50:08.583Z,1006.67
2018-12-07T00:51:18.280Z,1006.61
2018-12-07T00:52:27.985Z,1006.71
2018-12-07T00:53:37.687Z,1006.71
2018-12-07T00:54:47.393Z,1006.65
2018-12-07T00:55:57.347Z,1006.61
2018-12-07T00:57:07.349Z,1006.64
2018-12-07T00:58:17.125Z,1006.56
2018-12-07T00:59:26.829Z,1006.57
2018-12-07T01:00:36.625Z,1006.57
2018-12-07T01:01:46.576Z,1006.53
2018-12-07T01:02:56.293Z,1006.5
2018-12-07T01:04:05.739Z,1006.53
2018-12-07T01:05:15.449Z,1006.46
2018-12-07T01:06:25.143Z,1006.47
2018-12-07T01:07:34.829Z,1006.37
2018-12-07T01:08:44.781Z,1006.34
2018-12-07T01:09:54.729Z,1006.35
2018-12-07T01:11:04.680Z,1006.31
2018-12-07T01:12:14.627Z,1006.3
2018-12-07T01:13:24.372Z,1006.33
2018-12-07T01:14:34.323Z,1006.23
2018-12-07T01:15:44.025Z,1006.27
2018-12-07T01:16:53.715Z,1006.24
2018-12-07T01:18:03.661Z,1006.3
2018-12-07T01:19:13.121Z,1006.3
2018-12-07T01:20:23.059Z,1006.28
2018-12-07T01:21:33.015Z,1006.25
2018-12-07T01:22:42.972Z,1006.21
2018-12-07T01:23:52.915Z,1006.25
2018-12-07T01:25:02.871Z,1006.17
2018-12-07T01:26:12.393Z,1006.27
2018-12-07T01:27:22.336Z,1006.23
2018-12-07T01:28:32.039Z,1006.14
2018-12-07T01:29:41.729Z,1006.27
2018-12-07T01:30:51.175Z,1006.21
2018-12-07T01:32:00.888Z,1006.09
2018-12-07T01:33:10.579Z,1006.2
2018-12-07T01:34:20.638Z,1006.26
2018-12-07T01:35:30.592Z,1006.27
2018-12-07T01:36:40.304Z,1006.23
2018-12-07T01:37:49.731Z,1006.26
2018-12-07T01:38:59.435Z,1006.23
2018-12-07T01:40:09.383Z,1006.18
2018-12-07T01:41:19.391Z,1006.27
2018-12-07T01:42:29.087Z,1006.25
2018-12-07T01:43:39.036Z,1006.31
2018-12-07T01:44:48.735Z,1006.25
2018-12-07T01:45:58.685Z,1006.29
2018-12-07T01:47:08.458Z,1006.21
2018-12-07T01:48:18.161Z,1006.24
2018-12-07T01:49:27.611Z,1006.19
2018-12-07T01:50:37.315Z,1006.25
2018-12-07T01:51:47.261Z,1006.21
2018-12-07T01:52:57.199Z,1006.1
2018-12-07T01:54:06.915Z,1006.2
2018-12-07T01:55:16.957Z,1006.09
2018-12-07T01:56:26.401Z,1006.11
2018-12-07T01:57:35.860Z,1006.1
2018-12-07T01:58:45.818Z,1006.12
2018-12-07T01:59:55.776Z,1006.06
2018-12-07T02:01:05.869Z,1006.13
2018-12-07T02:02:15.816Z,1006.06
2018-12-07T02:03:25.250Z,1006.07
2018-12-07T02:04:34.943Z,1005.96
2018-12-07T02:05:44.906Z,1006.03
2018-12-07T02:06:54.862Z,1005.89
2018-12-07T02:08:04.549Z,1005.97
2018-12-07T02:09:14.242Z,1005.92
2018-12-07T02:10:23.941Z,1005.99
2018-12-07T02:11:33.907Z,1005.85
2018-12-07T02:12:43.594Z,1005.78
2018-12-07T02:13:53.048Z,1005.75
2018-12-07T02:15:03.026Z,1005.82
2018-12-07T02:16:12.464Z,1005.77
2018-12-07T02:17:22.516Z,1005.73
2018-12-07T02:18:32.225Z,1005.79
2018-12-07T02:19:42.170Z,1005.7
2018-12-07T02:20:51.862Z,1005.63
2018-12-07T02:22:01.581Z,1005.64
2018-12-07T02:23:11.532Z,1005.59
2018-12-07T02:24:21.308Z,1005.53
2018-12-07T02:25:31.248Z,1005.47
2018-12-07T02:26:41.187Z,1005.52
2018-12-07T02:27:50.900Z,1005.52
2018-12-07T02:29:00.604Z,1005.56
2018-12-07T02:30:10.553Z,1005.51
2018-12-07T02:31:20.263Z,1005.56
2018-12-07T02:32:30.240Z,1005.49
2018-12-07T02:33:40.206Z,1005.47
2018-12-07T02:34:50.169Z,1005.48
2018-12-07T02:36:00.159Z,1005.48
2018-12-07T02:37:10.124Z,1005.49
2018-12-07T02:38:20.094Z,1005.55
2018-12-07T02:39:29.545Z,1005.47
2018-12-07T02:40:39.504Z,1005.52
2018-12-07T02:41:49.467Z,1005.47
2018-12-07T02:42:59.182Z,1005.37
2018-12-07T02:44:08.373Z,1005.32
2018-12-07T02:45:18.321Z,1005.41
2018-12-07T02:46:28.264Z,1005.32
2018-12-07T02:47:37.968Z,1005.34
2018-12-07T02:48:48.105Z,1005.32
2018-12-07T02:49:58.078Z,1005.32
2018-12-07T02:51:07.523Z,1005.32
2018-12-07T02:52:17.496Z,1005.24
2018-12-07T02:53:27.219Z,1005.38
2018-12-07T02:54:37.172Z,1005.16
2018-12-07T02:55:47.118Z,1005.16
2018-12-07T02:56:56.810Z,1005.27
2018-12-07T02:58:06.505Z,1005.12
2018-12-07T02:59:15.953Z,1005.19
2018-12-07T03:00:25.903Z,1005.2
2018-12-07T03:01:35.850Z,1005.18
2018-12-07T03:02:45.300Z,1005.23
2018-12-07T03:03:55.263Z,1005.22
2018-12-07T03:05:05.208Z,1005.21
2018-12-07T03:06:15.146Z,1005.02
2018-12-07T03:07:24.849Z,1005.15
2018-12-07T03:08:34.540Z,1005.06
2018-12-07T03:09:44.491Z,1005
2018-12-07T03:10:54.467Z,1005.02
2018-12-07T03:12:03.924Z,1004.99
2018-12-07T03:13:13.874Z,1005.02
2018-12-07T03:14:23.831Z,1005.05
2018-12-07T03:15:33.786Z,1004.95
2018-12-07T03:16:43.479Z,1004.92
2018-12-07T03:17:53.442Z,1004.99
2018-12-07T03:19:03.388Z,1004.79
2018-12-07T03:20:12.846Z,1004.93
2018-12-07T03:21:22.557Z,1004.89
2018-12-07T03:22:32.253Z,1004.87
2018-12-07T03:23:41.949Z,1004.81
2018-12-07T03:24:51.902Z,1004.79
2018-12-07T03:26:01.606Z,1004.81
2018-12-07T03:27:11.309Z,1004.82
2018-12-07T03:28:21.014Z,1004.83
2018-12-07T03:29:30.960Z,1004.93
2018-12-07T03:30:40.659Z,1004.84
2018-12-07T03:31:50.634Z,1004.76
2018-12-07T03:33:00.603Z,1004.74
2018-12-07T03:34:10.590Z,1004.73
2018-12-07T03:35:20.545Z,1004.73
2018-12-07T03:36:30.509Z,1004.71
2018-12-07T03:37:40.199Z,1004.68
2018-12-07T03:38:50.165Z,1004.68
2018-12-07T03:40:00.126Z,1004.66
2018-12-07T03:41:10.096Z,1004.69
2018-12-07T03:42:19.782Z,1004.69
2018-12-07T03:43:29.474Z,1004.61
2018-12-07T03:44:39.431Z,1004.63
2018-12-07T03:45:48.905Z,1004.66
2018-12-07T03:46:58.616Z,1004.67
2018-12-07T03:48:08.594Z,1004.67
2018-12-07T03:49:18.541Z,1004.54
2018-12-07T03:50:28.013Z,1004.45
2018-12-07T03:51:37.956Z,1004.46
2018-12-07T03:52:47.672Z,1004.66
2018-12-07T03:53:57.634Z,1004.65
2018-12-07T03:55:07.602Z,1004.58
2018-12-07T03:56:17.562Z,1004.54
2018-12-07T03:57:27.005Z,1004.49
2018-12-07T03:58:36.958Z,1004.47
2018-12-07T03:59:46.923Z,1004.51
2018-12-07T04:00:56.899Z,1004.45
2018-12-07T04:02:06.855Z,1004.5
2018-12-07T04:03:16.059Z,1004.45
2018-12-07T04:04:26.012Z,1004.45
2018-12-07T04:05:35.970Z,1004.49
2018-12-07T04:06:45.696Z,1004.5
2018-12-07T04:07:55.147Z,1004.43
2018-12-07T04:09:04.857Z,1004.53
2018-12-07T04:10:14.811Z,1004.47
2018-12-07T04:11:24.777Z,1004.52
2018-12-07T04:12:34.718Z,1004.4
2018-12-07T04:13:44.662Z,1004.33
2018-12-07T04:14:54.369Z,1004.37
2018-12-07T04:16:04.321Z,1004.37
2018-12-07T04:17:14.269Z,1004.34
2018-12-07T04:18:23.985Z,1004.4
2018-12-07T04:19:33.945Z,1004.26
2018-12-07T04:20:43.677Z,1004.42
2018-12-07T04:21:53.134Z,1004.34
2018-12-07T04:23:03.079Z,1004.39
2018-12-07T04:24:13.019Z,1004.26
2018-12-07T04:25:22.459Z,1004.31
2018-12-07T04:26:32.175Z,1004.31
2018-12-07T04:27:42.169Z,1004.32
2018-12-07T04:28:51.949Z,1004.22
2018-12-07T04:30:01.639Z,1004.25
2018-12-07T04:31:11.672Z,1004.28
2018-12-07T04:32:21.374Z,1004.29
2018-12-07T04:33:30.824Z,1004.24
2018-12-07T04:34:40.786Z,1004.3
2018-12-07T04:35:50.754Z,1004.3
2018-12-07T04:37:07.470Z,1004.24
2018-12-07T04:38:17.442Z,1004.28
2018-12-07T04:39:27.396Z,1004.31
2018-12-07T04:40:37.109Z,1004.23
2018-12-07T04:41:47.062Z,1004.24
2018-12-07T04:42:56.769Z,1004.22
2018-12-07T04:44:06.466Z,1004.25
2018-12-07T04:45:16.175Z,1004.24
2018-12-07T04:46:26.126Z,1004.31
2018-12-07T04:47:35.828Z,1004.4
2018-12-07T04:48:45.814Z,1004.25
2018-12-07T04:49:55.523Z,1004.26
2018-12-07T04:51:05.224Z,1004.34
2018-12-07T04:52:15.182Z,1004.16
2018-12-07T04:53:24.885Z,1004.23
2018-12-07T04:54:34.841Z,1004.21
2018-12-07T04:55:44.519Z,1004.19
2018-12-07T04:56:54.480Z,1004.15
2018-12-07T04:58:03.976Z,1004.24
2018-12-07T04:59:13.936Z,1004.15
2018-12-07T05:00:23.995Z,1004.14
2018-12-07T05:01:33.730Z,1004.01
2018-12-07T05:02:43.188Z,1004.08
2018-12-07T05:03:53.150Z,1004.08
2018-12-07T05:05:02.877Z,1004.03
2018-12-07T05:06:13.866Z,1004.02
2018-12-07T05:07:23.828Z,1004.02
2018-12-07T05:08:33.788Z,1003.98
2018-12-07T05:09:43.739Z,1004.03
2018-12-07T05:10:53.444Z,1004.05
2018-12-07T05:12:02.899Z,1004.03
2018-12-07T05:13:12.854Z,1004.03
2018-12-07T05:14:23.710Z,1003.97
2018-12-07T05:15:33.467Z,1004.02
2018-12-07T05:16:43.450Z,1003.98
2018-12-07T05:17:53.424Z,1004.01
2018-12-07T05:19:03.377Z,1004.02
2018-12-07T05:20:13.325Z,1004.07
2018-12-07T05:21:23.043Z,1004.15
2018-12-07T05:22:33.020Z,1003.98
2018-12-07T05:23:42.997Z,1003.96
2018-12-07T05:24:52.689Z,1004.1
2018-12-07T05:26:02.440Z,1004.07
2018-12-07T05:27:12.422Z,1004.07
2018-12-07T05:28:22.379Z,1003.96
2018-12-07T05:29:32.103Z,1004.04
2018-12-07T05:30:42.066Z,1004.09
2018-12-07T05:31:52.039Z,1004.03
2018-12-07T05:33:01.994Z,1004.05
2018-12-07T05:34:11.712Z,1004.04
2018-12-07T05:35:21.663Z,1003.96
2018-12-07T05:36:31.377Z,1004.03
2018-12-07T05:37:41.077Z,1003.98
2018-12-07T05:38:51.045Z,1003.99
2018-12-07T05:40:00.748Z,1003.99
2018-12-07T05:41:10.444Z,1004.11
2018-12-07T05:42:20.143Z,1004.06
2018-12-07T05:43:29.858Z,1003.91
2018-12-07T05:44:39.564Z,1004.04
2018-12-07T05:45:49.536Z,1004.05
2018-12-07T05:46:59.501Z,1003.9
2018-12-07T05:48:09.440Z,1003.99
2018-12-07T05:49:26.393Z,1003.98
2018-12-07T05:50:36.348Z,1004
2018-12-07T05:51:46.308Z,1003.98
2018-12-07T05:52:55.770Z,1004
2018-12-07T05:54:05.702Z,1004.05
2018-12-07T05:55:15.424Z,1003.97
2018-12-07T05:56:25.381Z,1004
2018-12-07T05:57:35.084Z,1003.89
2018-12-07T05:58:44.556Z,1004.03
2018-12-07T05:59:54.248Z,1004.01
2018-12-07T06:01:03.970Z,1004.11
2018-12-07T06:02:13.675Z,1004
2018-12-07T06:03:23.644Z,1004.02
2018-12-07T06:04:33.342Z,1003.99
2018-12-07T06:05:43.034Z,1003.95
2018-12-07T06:06:52.974Z,1004.01
2018-12-07T06:08:02.914Z,1004.04
2018-12-07T06:09:12.619Z,1004
2018-12-07T06:10:22.309Z,1003.96
2018-12-07T06:11:32.009Z,1003.9
2018-12-07T06:12:41.956Z,1003.93
2018-12-07T06:13:51.416Z,1003.87
2018-12-07T06:15:01.124Z,1003.83
2018-12-07T06:16:11.077Z,1003.89
2018-12-07T06:17:21.070Z,1003.85
2018-12-07T06:18:31.021Z,1003.9
2018-12-07T06:19:41.140Z,1003.99
2018-12-07T06:20:50.852Z,1003.83
2018-12-07T06:22:00.784Z,1003.83
2018-12-07T06:23:10.502Z,1003.84
2018-12-07T06:24:20.209Z,1003.85
2018-12-07T06:25:29.918Z,1003.93
2018-12-07T06:26:39.882Z,1003.85
2018-12-07T06:27:49.833Z,1003.83
2018-12-07T06:28:59.772Z,1003.79
2018-12-07T06:30:09.733Z,1003.89
2018-12-07T06:31:19.447Z,1003.87
2018-12-07T06:32:35.890Z,1003.88
2018-12-07T06:33:46.026Z,1003.7
2018-12-07T06:34:55.738Z,1003.79
2018-12-07T06:36:05.723Z,1003.75
2018-12-07T06:37:15.714Z,1003.75
2018-12-07T06:38:25.448Z,1003.81
2018-12-07T06:39:35.410Z,1003.76
2018-12-07T06:40:45.126Z,1003.72
2018-12-07T06:41:55.086Z,1003.76
2018-12-07T06:43:04.794Z,1003.74
2018-12-07T06:44:14.488Z,1003.81
2018-12-07T06:45:24.218Z,1003.87
2018-12-07T06:46:35.703Z,1003.75
2018-12-07T06:47:45.663Z,1003.78
2018-12-07T06:48:55.108Z,1003.75
2018-12-07T06:50:04.825Z,1003.77
2018-12-07T06:51:14.810Z,1003.81
2018-12-07T06:52:24.525Z,1003.63
2018-12-07T06:53:34.514Z,1003.71
2018-12-07T06:54:44.480Z,1003.66
2018-12-07T06:55:54.460Z,1003.64
2018-12-07T06:57:04.457Z,1003.61
2018-12-07T06:58:13.910Z,1003.7
2018-12-07T06:59:23.883Z,1003.61
2018-12-07T07:00:33.353Z,1003.66
2018-12-07T07:01:43.309Z,1003.62
2018-12-07T07:02:53.006Z,1003.65
2018-12-07T07:04:02.720Z,1003.58
2018-12-07T07:05:12.435Z,1003.62
2018-12-07T07:06:22.429Z,1003.55
2018-12-07T07:07:32.134Z,1003.5
2018-12-07T07:08:42.317Z,1003.63
2018-12-07T07:09:52.292Z,1003.64
2018-12-07T07:11:02.032Z,1003.54
2018-12-07T07:12:12.012Z,1003.58
2018-12-07T07:13:21.978Z,1003.57
2018-12-07T07:14:32.019Z,1003.46
2018-12-07T07:15:41.988Z,1003.58
2018-12-07T07:16:51.712Z,1003.59
2018-12-07T07:18:01.686Z,1003.5
2018-12-07T07:19:11.399Z,1003.57
2018-12-07T07:20:21.362Z,1003.47
2018-12-07T07:21:31.129Z,1003.58
2018-12-07T07:22:41.126Z,1003.52
2018-12-07T07:23:51.092Z,1003.62
2018-12-07T07:25:00.840Z,1003.74
2018-12-07T07:26:10.809Z,1003.6
2018-12-07T07:27:20.782Z,1003.62
2018-12-07T07:28:30.250Z,1003.63
2018-12-07T07:29:39.716Z,1003.6
2018-12-07T07:30:49.681Z,1003.64
2018-12-07T07:31:59.640Z,1003.66
2018-12-07T07:33:09.337Z,1003.64
2018-12-07T07:34:19.072Z,1003.65
2018-12-07T07:35:28.789Z,1003.74
2018-12-07T07:36:38.553Z,1003.65
2018-12-07T07:37:48.522Z,1003.59
2018-12-07T07:38:58.491Z,1003.6
2018-12-07T07:40:08.209Z,1003.54
2018-12-07T07:41:18.214Z,1003.63
2018-12-07T07:42:28.188Z,1003.53
2018-12-07T07:43:38.164Z,1003.63
2018-12-07T07:44:48.358Z,1003.56
2018-12-07T07:45:58.053Z,1003.54
2018-12-07T07:47:07.819Z,1003.5
2018-12-07T07:48:17.290Z,1003.51
2018-12-07T07:49:27.010Z,1003.51
2018-12-07T07:50:36.984Z,1003.44
2018-12-07T07:51:46.955Z,1003.47
2018-12-07T07:52:56.923Z,1003.45
2018-12-07T07:54:06.399Z,1003.41
2018-12-07T07:55:16.119Z,1003.47
2018-12-07T07:56:25.838Z,1003.42
2018-12-07T07:57:35.301Z,1003.31
2018-12-07T07:58:45.264Z,1003.32
2018-12-07T07:59:54.721Z,1003.32
2018-12-07T08:01:04.188Z,1003.4
2018-12-07T08:02:13.901Z,1003.27
2018-12-07T08:03:23.628Z,1003.37
2018-12-07T08:04:33.563Z,1003.32
2018-12-07T08:05:43.054Z,1003.32
2018-12-07T08:06:53.015Z,1003.3
2018-12-07T08:08:02.821Z,1003.31
2018-12-07T08:09:12.611Z,1003.24
2018-12-07T08:10:22.082Z,1003.22
2018-12-07T08:11:31.875Z,1003.19
2018-12-07T08:12:41.846Z,1003.28
2018-12-07T08:13:51.802Z,1003.26
2018-12-07T08:15:01.523Z,1003.13
2018-12-07T08:16:11.239Z,1003.1
2018-12-07T08:17:21.241Z,1003.07
2018-12-07T08:18:30.948Z,1003.03
2018-12-07T08:19:40.900Z,1003.07
2018-12-07T08:20:50.663Z,1002.97
2018-12-07T08:22:00.636Z,1003.08
2018-12-07T08:23:14.595Z,1002.95
2018-12-07T08:24:24.817Z,1002.99
2018-12-07T08:25:34.775Z,1003
2018-12-07T08:26:44.754Z,1002.99
2018-12-07T08:27:54.711Z,1002.93
2018-12-07T08:29:04.669Z,1002.97
2018-12-07T08:30:14.384Z,1002.97
2018-12-07T08:31:24.355Z,1002.97
2018-12-07T08:32:34.059Z,1002.97
2018-12-07T08:33:43.780Z,1003.03
2018-12-07T08:34:53.733Z,1002.97
2018-12-07T08:36:03.695Z,1002.95
2018-12-07T08:37:13.136Z,1003.11
2018-12-07T08:38:23.107Z,1002.89
2018-12-07T08:39:33.059Z,1002.97
2018-12-07T08:40:42.770Z,1002.93
2018-12-07T08:41:52.736Z,1002.92
2018-12-07T08:43:09.511Z,1002.99
2018-12-07T08:44:19.455Z,1002.93
2018-12-07T08:45:29.204Z,1003
2018-12-07T08:46:39.159Z,1002.91
2018-12-07T08:47:48.611Z,1003.02
2018-12-07T08:48:58.570Z,1002.95
2018-12-07T08:50:08.268Z,1002.92
2018-12-07T08:51:18.248Z,1003
2018-12-07T08:52:28.220Z,1002.92
2018-12-07T08:53:37.983Z,1002.95
2018-12-07T08:54:48.106Z,1002.92
2018-12-07T08:55:58.164Z,1002.93
2018-12-07T08:57:08.125Z,1002.88
2018-12-07T08:58:17.810Z,1002.86
2018-12-07T08:59:27.542Z,1002.92
2018-12-07T09:00:37.004Z,1002.87
2018-12-07T09:01:46.758Z,1002.94
2018-12-07T09:02:56.466Z,1002.82
2018-12-07T09:04:06.532Z,1002.91
2018-12-07T09:05:16.508Z,1002.86
2018-12-07T09:06:26.008Z,1002.87
2018-12-07T09:07:35.982Z,1002.85
2018-12-07T09:08:45.780Z,1002.82
2018-12-07T09:09:55.249Z,1002.77
2018-12-07T09:11:04.973Z,1002.81
2018-12-07T09:12:14.702Z,1002.74
2018-12-07T09:13:24.678Z,1002.77
2018-12-07T09:14:34.702Z,1002.71
2018-12-07T09:15:44.508Z,1002.76
2018-12-07T09:16:54.548Z,1002.7
2018-12-07T09:18:04.504Z,1002.69
2018-12-07T09:19:14.457Z,1002.71
2018-12-07T09:20:24.148Z,1002.59
2018-12-07T09:21:34.317Z,1002.64
2018-12-07T09:22:44.289Z,1002.65
2018-12-07T09:23:54.004Z,1002.61
2018-12-07T09:25:04.032Z,1002.63
2018-12-07T09:26:18.071Z,1002.65
2018-12-07T09:27:28.033Z,1002.62
2018-12-07T09:28:38.058Z,1002.6
2018-12-07T09:29:47.830Z,1002.6
2018-12-07T09:30:57.277Z,1002.53
2018-12-07T09:32:07.260Z,1002.58
2018-12-07T09:33:17.028Z,1002.45
2018-12-07T09:34:26.981Z,1002.59
2018-12-07T09:35:36.944Z,1002.47
2018-12-07T09:36:46.422Z,1002.44
2018-12-07T09:37:56.160Z,1002.51
2018-12-07T09:39:13.523Z,1002.48
2018-12-07T09:40:23.234Z,1002.47
2018-12-07T09:41:33.203Z,1002.41
2018-12-07T09:42:42.684Z,1002.35
2018-12-07T09:43:52.696Z,1002.41
2018-12-07T09:45:02.440Z,1002.3
2018-12-07T09:46:11.922Z,1002.36
2018-12-07T09:47:21.642Z,1002.41
2018-12-07T09:48:31.370Z,1002.54
2018-12-07T09:49:41.086Z,1002.5
2018-12-07T09:50:51.047Z,1002.44
2018-12-07T09:52:01.000Z,1002.25
2018-12-07T09:53:10.812Z,1002.28
2018-12-07T09:54:20.796Z,1002.22
2018-12-07T09:55:30.766Z,1002.22
2018-12-07T09:56:40.480Z,1002.16
2018-12-07T09:57:50.495Z,1002.14
2018-12-07T09:59:00.438Z,1002.12
2018-12-07T10:00:09.906Z,1002.12
2018-12-07T10:01:19.861Z,1002.06
2018-12-07T10:02:29.571Z,1002.12
2018-12-07T10:03:39.292Z,1002.14
2018-12-07T10:04:49.247Z,1002.27
2018-12-07T10:05:58.940Z,1002.04
2018-12-07T10:07:08.905Z,1002.02
2018-12-07T10:08:18.858Z,1002.02
2018-12-07T10:09:28.647Z,1002.05
2018-12-07T10:10:38.611Z,1002.02
2018-12-07T10:11:48.325Z,1002.01
2018-12-07T10:12:58.332Z,1001.91
2018-12-07T10:14:15.506Z,1001.97
2018-12-07T10:15:25.482Z,1001.92
2018-12-07T10:16:35.444Z,1001.85
2018-12-07T10:17:45.452Z,1001.82
2018-12-07T10:18:55.399Z,1001.71
2018-12-07T10:20:05.120Z,1001.65
2018-12-07T10:21:15.078Z,1001.69
2018-12-07T10:22:25.068Z,1001.68
2018-12-07T10:23:34.790Z,1001.62
2018-12-07T10:24:44.750Z,1001.64
2018-12-07T10:25:54.462Z,1001.53
2018-12-07T10:27:04.427Z,1001.54
2018-12-07T10:28:14.394Z,1001.48
2018-12-07T10:29:24.369Z,1001.44
2018-12-07T10:30:34.334Z,1001.44
2018-12-07T10:31:44.309Z,1001.48
2018-12-07T10:32:54.265Z,1001.54
2018-12-07T10:34:04.238Z,1001.44
2018-12-07T10:35:14.215Z,1001.42
2018-12-07T10:36:23.983Z,1001.36
2018-12-07T10:37:33.938Z,1001.39
2018-12-07T10:38:43.441Z,1001.38
2018-12-07T10:39:52.886Z,1001.3
2018-12-07T10:41:02.879Z,1001.29
2018-12-07T10:42:12.591Z,1001.31
2018-12-07T10:43:22.577Z,1001.26
2018-12-07T10:44:32.282Z,1001.23
2018-12-07T10:45:42.006Z,1001.25
2018-12-07T10:46:51.998Z,1001.22
2018-12-07T10:48:01.759Z,1001.24
2018-12-07T10:49:11.730Z,1001.14
2018-12-07T10:50:21.464Z,1001.1
2018-12-07T10:51:31.577Z,1001.1
2018-12-07T10:52:41.290Z,1001.07
2018-12-07T10:53:51.288Z,1001.12
2018-12-07T10:55:01.019Z,1000.99
2018-12-07T10:56:11.039Z,1001.02
2018-12-07T10:57:21.227Z,1000.95
2018-12-07T10:58:31.186Z,1001.07
2018-12-07T10:59:40.890Z,1000.99
2018-12-07T11:00:52.233Z,1000.95
2018-12-07T11:02:02.193Z,1000.94
2018-12-07T11:03:12.167Z,1000.92
2018-12-07T11:04:21.667Z,1000.87
2018-12-07T11:05:31.181Z,1000.85
2018-12-07T11:06:40.971Z,1000.94
2018-12-07T11:07:50.433Z,1000.85
2018-12-07T11:09:00.747Z,1000.83
2018-12-07T11:10:10.708Z,1000.76
2018-12-07T11:11:20.716Z,1000.73
2018-12-07T11:12:30.173Z,1000.7
2018-12-07T11:13:40.139Z,1000.67
2018-12-07T11:14:50.096Z,1000.72
2018-12-07T11:16:00.148Z,1000.69
2018-12-07T11:17:09.353Z,1000.68
2018-12-07T11:18:19.056Z,1000.58
2018-12-07T11:19:29.006Z,1000.6
2018-12-07T11:20:38.977Z,1000.71
2018-12-07T11:21:48.699Z,1000.6
2018-12-07T11:22:57.930Z,1000.56
2018-12-07T11:24:07.891Z,1000.58
2018-12-07T11:25:17.891Z,1000.49
2018-12-07T11:26:27.875Z,1000.56
2018-12-07T11:27:37.843Z,1000.48
2018-12-07T11:28:47.810Z,1000.57
2018-12-07T11:29:57.522Z,1000.47
2018-12-07T11:31:07.243Z,1000.43
2018-12-07T11:32:17.234Z,1000.48
2018-12-07T11:33:27.222Z,1000.46
2018-12-07T11:34:37.461Z,1000.47
2018-12-07T11:35:46.990Z,1000.42
2018-12-07T11:36:56.736Z,1000.38
2018-12-07T11:38:06.708Z,1000.3
2018-12-07T11:39:16.457Z,1000.29
2018-12-07T11:40:26.150Z,1000.24
2018-12-07T11:41:36.410Z,1000.34
2018-12-07T11:42:46.142Z,1000.22
2018-12-07T11:43:55.888Z,1000.16
2018-12-07T11:45:05.187Z,1000.31
2018-12-07T11:46:14.897Z,1000.29
2018-12-07T11:47:24.669Z,1000.16
2018-12-07T11:48:34.636Z,1000.2
2018-12-07T11:49:44.572Z,1000.21
2018-12-07T11:50:54.278Z,1000.16
2018-12-07T11:52:04.242Z,1000.17
2018-12-07T11:53:14.290Z,1000.14
2018-12-07T11:54:24.253Z,1000.12
2018-12-07T11:55:34.247Z,1000.14
2018-12-07T11:56:44.246Z,1000.02
2018-12-07T11:57:53.738Z,1000.16
2018-12-07T11:59:03.692Z,999.96
2018-12-07T12:00:13.653Z,999.95
2018-12-07T12:01:23.637Z,1000.05
2018-12-07T12:02:33.344Z,999.99
2018-12-07T12:03:43.292Z,999.99
2018-12-07T12:04:52.994Z,999.96
2018-12-07T12:06:02.701Z,999.88
2018-12-07T12:07:12.404Z,999.91
2018-12-07T12:08:22.386Z,1000.04
2018-12-07T12:09:32.331Z,999.91
2018-12-07T12:10:42.287Z,999.79
2018-12-07T12:11:52.237Z,999.79
2018-12-07T12:13:01.692Z,999.81
2018-12-07T12:14:11.154Z,999.73
2018-12-07T12:15:21.104Z,999.86
2018-12-07T12:16:30.825Z,999.75
2018-12-07T12:17:40.547Z,999.71
2018-12-07T12:18:50.518Z,999.77
2018-12-07T12:20:00.508Z,999.69
2018-12-07T12:21:10.459Z,999.68
2018-12-07T12:22:20.465Z,999.69
2018-12-07T12:23:30.186Z,999.65
2018-12-07T12:24:40.151Z,999.63
2018-12-07T12:25:50.195Z,999.65
2018-12-07T12:27:00.142Z,999.58
2018-12-07T12:28:10.101Z,999.6
2018-12-07T12:29:19.817Z,999.58
2018-12-07T12:30:29.780Z,999.63
2018-12-07T12:31:39.729Z,999.54
2018-12-07T12:33:02.205Z,999.58
2018-12-07T12:34:11.961Z,999.42
2018-12-07T12:59:38.694Z,999.18
2018-12-07T13:00:48.644Z,999.1
2018-12-07T13:01:58.343Z,999.08
2018-12-07T13:03:08.056Z,999.06
2018-12-07T13:04:17.995Z,998.98
2018-12-07T13:05:27.693Z,999.02
2018-12-07T13:06:37.140Z,998.98
2018-12-07T13:07:46.838Z,998.96
2018-12-07T13:08:56.556Z,999.03
2018-12-07T13:10:06.766Z,998.93
2018-12-07T13:11:16.734Z,999.01
2018-12-07T13:12:26.669Z,998.93
2018-12-07T13:13:36.373Z,998.91
2018-12-07T13:14:46.337Z,998.88
2018-12-07T13:15:56.282Z,998.81
2018-12-07T13:17:05.997Z,998.84
2018-12-07T13:18:15.951Z,998.85
2018-12-07T13:19:25.689Z,998.84
2018-12-07T13:20:35.429Z,998.77
2018-12-07T13:21:44.885Z,998.8
2018-12-07T13:22:54.860Z,998.73
2018-12-07T13:24:04.693Z,998.75
2018-12-07T13:25:14.862Z,998.71
2018-12-07T13:26:24.864Z,998.67
2018-12-07T13:27:34.818Z,998.64
2018-12-07T13:28:44.773Z,998.58
2018-12-07T13:29:54.778Z,998.57
2018-12-07T13:31:04.731Z,998.52
2018-12-07T13:32:14.679Z,998.53
2018-12-07T13:33:24.637Z,998.57
2018-12-07T13:34:34.361Z,998.51
2018-12-07T13:35:44.320Z,998.48
2018-12-07T13:36:54.278Z,998.47
2018-12-07T13:38:04.248Z,998.43
2018-12-07T13:39:13.958Z,998.37
2018-12-07T13:40:23.853Z,998.32
2018-12-07T13:41:34.000Z,998.32
2018-12-07T13:42:50.586Z,998.24
2018-12-07T13:44:00.609Z,998.22
2018-12-07T13:45:10.912Z,998.21
2018-12-07T13:46:21.227Z,998.28
2018-12-07T13:47:32.006Z,998.17
2018-12-07T13:48:42.096Z,998.18
2018-12-07T13:49:52.443Z,998.17
2018-12-07T13:51:03.147Z,998.1
2018-12-07T13:52:14.086Z,998.14
2018-12-07T13:53:24.370Z,998.06
2018-12-07T13:54:34.538Z,998.1
2018-12-07T13:55:45.157Z,998.07
2018-12-07T13:56:55.518Z,998.01
2018-12-07T13:58:06.994Z,997.98
2018-12-07T13:59:17.285Z,997.98
2018-12-07T14:00:27.552Z,997.97
2018-12-07T14:01:38.133Z,997.94
2018-12-07T14:02:48.669Z,997.88
2018-12-07T14:03:58.805Z,997.88
2018-12-07T14:05:09.656Z,997.94
2018-12-07T14:06:19.523Z,997.81
2018-12-07T14:07:29.938Z,997.81
2018-12-07T14:08:40.359Z,997.79
2018-12-07T14:09:50.689Z,997.78
2018-12-07T14:11:01.321Z,997.79
2018-12-07T14:12:11.923Z,997.75
2018-12-07T14:13:21.963Z,997.73
2018-12-07T14:14:32.553Z,997.72
2018-12-07T14:15:43.538Z,997.74
2018-12-07T14:16:53.748Z,997.77
2018-12-07T14:18:04.173Z,997.68
2018-12-07T14:19:14.666Z,997.6
2018-12-07T14:20:24.959Z,997.65
2018-12-07T14:21:35.326Z,997.63
2018-12-07T14:22:45.653Z,997.61
2018-12-07T14:23:56.104Z,997.58
2018-12-07T14:25:06.646Z,997.56
2018-12-07T14:26:16.688Z,997.57
2018-12-07T14:27:27.172Z,997.62
2018-12-07T14:28:37.299Z,997.53
2018-12-07T14:29:47.682Z,997.5
2018-12-07T14:30:58.121Z,997.57
2018-12-07T14:32:08.450Z,997.52
2018-12-07T14:33:18.629Z,997.46
2018-12-07T14:34:28.991Z,997.45
2018-12-07T14:35:39.251Z,997.48
2018-12-07T14:36:49.356Z,997.47